sensor_id;sensor_type;location;lat;lon;timestamp;P1;durP1;ratioP1;P2;durP2;ratioP2
9420;SDS011;4749;51.398;5.466;2023-07-13T00:01:53;4.30;;;1.15;;
9420;SDS011;4749;51.398;5.466;2023-07-13T00:04:21;3.42;;;0.95;;
9420;SDS011;4749;51.398;5.466;2023-07-13T00:06:55;3.85;;;1.15;;
9420;SDS011;4749;51.398;5.466;2023-07-13T00:09:22;4.68;;;1.15;;
9420;SDS011;4749;51.398;5.466;2023-07-13T00:11:51;6.65;;;1.75;;
9420;SDS011;4749;51.398;5.466;2023-07-13T00:14:23;5.80;;;1.13;;
9420;SDS011;4749;51.398;5.466;2023-07-13T00:16:52;5.97;;;1.30;;
9420;SDS011;4749;51.398;5.466;2023-07-13T00:19:20;4.75;;;1.05;;
9420;SDS011;4749;51.398;5.466;2023-07-13T00:21:47;7.80;;;1.92;;
9420;SDS011;4749;51.398;5.466;2023-07-13T00:24:16;5.35;;;1.67;;
9420;SDS011;4749;51.398;5.466;2023-07-13T00:26:50;4.47;;;1.10;;
9420;SDS011;4749;51.398;5.466;2023-07-13T00:29:17;5.20;;;1.20;;
9420;SDS011;4749;51.398;5.466;2023-07-13T00:31:44;4.55;;;1.13;;
9420;SDS011;4749;51.398;5.466;2023-07-13T00:34:12;5.03;;;1.50;;
9420;SDS011;4749;51.398;5.466;2023-07-13T00:36:39;4.82;;;1.33;;
9420;SDS011;4749;51.398;5.466;2023-07-13T00:39:06;6.72;;;1.48;;
9420;SDS011;4749;51.398;5.466;2023-07-13T00:41:34;4.32;;;1.25;;
9420;SDS011;4749;51.398;5.466;2023-07-13T00:44:03;5.13;;;1.55;;
9420;SDS011;4749;51.398;5.466;2023-07-13T00:46:31;7.55;;;1.58;;
9420;SDS011;4749;51.398;5.466;2023-07-13T00:49:05;7.53;;;1.50;;
9420;SDS011;4749;51.398;5.466;2023-07-13T00:52:20;3.83;;;1.40;;
9420;SDS011;4749;51.398;5.466;2023-07-13T00:54:36;5.15;;;1.73;;
9420;SDS011;4749;51.398;5.466;2023-07-13T00:57:11;8.73;;;1.40;;
9420;SDS011;4749;51.398;5.466;2023-07-13T00:59:47;4.82;;;1.30;;
9420;SDS011;4749;51.398;5.466;2023-07-13T01:02:25;5.13;;;1.83;;
9420;SDS011;4749;51.398;5.466;2023-07-13T01:04:55;3.38;;;1.40;;
9420;SDS011;4749;51.398;5.466;2023-07-13T01:07:22;3.75;;;1.33;;
9420;SDS011;4749;51.398;5.466;2023-07-13T01:09:50;6.00;;;1.70;;
9420;SDS011;4749;51.398;5.466;2023-07-13T01:12:17;4.25;;;1.55;;
9420;SDS011;4749;51.398;5.466;2023-07-13T01:14:44;8.82;;;1.85;;
9420;SDS011;4749;51.398;5.466;2023-07-13T01:17:11;6.57;;;1.40;;
9420;SDS011;4749;51.398;5.466;2023-07-13T01:19:40;6.45;;;1.60;;
9420;SDS011;4749;51.398;5.466;2023-07-13T01:22:15;5.93;;;1.33;;
9420;SDS011;4749;51.398;5.466;2023-07-13T01:24:47;7.05;;;1.65;;
9420;SDS011;4749;51.398;5.466;2023-07-13T01:27:16;6.10;;;1.60;;
9420;SDS011;4749;51.398;5.466;2023-07-13T01:29:48;3.72;;;1.40;;
9420;SDS011;4749;51.398;5.466;2023-07-13T01:32:17;4.57;;;1.42;;
9420;SDS011;4749;51.398;5.466;2023-07-13T01:34:51;5.32;;;1.70;;
9420;SDS011;4749;51.398;5.466;2023-07-13T01:37:23;5.63;;;1.55;;
9420;SDS011;4749;51.398;5.466;2023-07-13T01:39:52;8.65;;;1.75;;
9420;SDS011;4749;51.398;5.466;2023-07-13T01:42:19;5.72;;;1.58;;
9420;SDS011;4749;51.398;5.466;2023-07-13T01:44:46;5.72;;;1.50;;
9420;SDS011;4749;51.398;5.466;2023-07-13T01:47:13;5.97;;;1.30;;
9420;SDS011;4749;51.398;5.466;2023-07-13T01:49:40;9.45;;;1.92;;
9420;SDS011;4749;51.398;5.466;2023-07-13T01:52:08;7.05;;;1.60;;
9420;SDS011;4749;51.398;5.466;2023-07-13T01:54:35;5.30;;;1.70;;
9420;SDS011;4749;51.398;5.466;2023-07-13T01:57:02;5.22;;;1.60;;
9420;SDS011;4749;51.398;5.466;2023-07-13T01:59:30;7.95;;;1.50;;
9420;SDS011;4749;51.398;5.466;2023-07-13T02:01:59;6.68;;;1.65;;
9420;SDS011;4749;51.398;5.466;2023-07-13T02:04:26;5.53;;;1.58;;
9420;SDS011;4749;51.398;5.466;2023-07-13T02:06:53;8.88;;;1.80;;
9420;SDS011;4749;51.398;5.466;2023-07-13T02:09:21;5.80;;;1.75;;
9420;SDS011;4749;51.398;5.466;2023-07-13T02:11:48;10.20;;;2.08;;
9420;SDS011;4749;51.398;5.466;2023-07-13T02:14:15;8.88;;;1.75;;
9420;SDS011;4749;51.398;5.466;2023-07-13T02:16:43;6.30;;;1.73;;
9420;SDS011;4749;51.398;5.466;2023-07-13T02:19:10;6.97;;;1.52;;
9420;SDS011;4749;51.398;5.466;2023-07-13T02:21:37;7.43;;;1.90;;
9420;SDS011;4749;51.398;5.466;2023-07-13T02:24:04;4.88;;;2.05;;
9420;SDS011;4749;51.398;5.466;2023-07-13T02:26:31;5.90;;;1.70;;
9420;SDS011;4749;51.398;5.466;2023-07-13T02:28:58;6.38;;;1.70;;
9420;SDS011;4749;51.398;5.466;2023-07-13T02:31:26;4.15;;;1.63;;
9420;SDS011;4749;51.398;5.466;2023-07-13T02:33:53;7.75;;;1.90;;
9420;SDS011;4749;51.398;5.466;2023-07-13T02:36:20;5.70;;;1.70;;
9420;SDS011;4749;51.398;5.466;2023-07-13T02:38:49;6.68;;;1.50;;
9420;SDS011;4749;51.398;5.466;2023-07-13T02:41:16;6.15;;;1.65;;
9420;SDS011;4749;51.398;5.466;2023-07-13T02:43:43;5.18;;;1.60;;
9420;SDS011;4749;51.398;5.466;2023-07-13T02:46:10;5.53;;;1.55;;
9420;SDS011;4749;51.398;5.466;2023-07-13T02:48:38;9.15;;;1.70;;
9420;SDS011;4749;51.398;5.466;2023-07-13T02:51:06;6.80;;;2.15;;
9420;SDS011;4749;51.398;5.466;2023-07-13T02:53:34;5.20;;;1.90;;
9420;SDS011;4749;51.398;5.466;2023-07-13T02:56:03;6.22;;;1.55;;
9420;SDS011;4749;51.398;5.466;2023-07-13T02:58:31;6.45;;;1.92;;
9420;SDS011;4749;51.398;5.466;2023-07-13T03:00:59;5.53;;;1.70;;
9420;SDS011;4749;51.398;5.466;2023-07-13T03:03:32;5.78;;;1.88;;
9420;SDS011;4749;51.398;5.466;2023-07-13T03:05:59;8.82;;;2.28;;
9420;SDS011;4749;51.398;5.466;2023-07-13T03:08:29;8.88;;;2.38;;
9420;SDS011;4749;51.398;5.466;2023-07-13T03:11:00;3.75;;;1.52;;
9420;SDS011;4749;51.398;5.466;2023-07-13T03:13:31;7.70;;;1.70;;
9420;SDS011;4749;51.398;5.466;2023-07-13T03:15:59;6.30;;;1.88;;
9420;SDS011;4749;51.398;5.466;2023-07-13T03:18:27;6.32;;;1.85;;
9420;SDS011;4749;51.398;5.466;2023-07-13T03:20:55;9.70;;;2.75;;
9420;SDS011;4749;51.398;5.466;2023-07-13T03:23:22;9.32;;;2.08;;
9420;SDS011;4749;51.398;5.466;2023-07-13T03:26:00;8.27;;;1.80;;
9420;SDS011;4749;51.398;5.466;2023-07-13T03:28:33;6.25;;;1.30;;
9420;SDS011;4749;51.398;5.466;2023-07-13T03:31:02;7.40;;;2.00;;
9420;SDS011;4749;51.398;5.466;2023-07-13T03:33:31;5.70;;;2.22;;
9420;SDS011;4749;51.398;5.466;2023-07-13T03:35:58;6.78;;;2.38;;
9420;SDS011;4749;51.398;5.466;2023-07-13T03:38:26;9.02;;;1.92;;
9420;SDS011;4749;51.398;5.466;2023-07-13T03:40:53;5.97;;;1.73;;
9420;SDS011;4749;51.398;5.466;2023-07-13T03:43:20;9.88;;;2.20;;
9420;SDS011;4749;51.398;5.466;2023-07-13T03:45:47;7.38;;;2.08;;
9420;SDS011;4749;51.398;5.466;2023-07-13T03:48:14;5.28;;;1.77;;
9420;SDS011;4749;51.398;5.466;2023-07-13T03:50:41;7.30;;;2.03;;
9420;SDS011;4749;51.398;5.466;2023-07-13T03:53:09;10.30;;;2.17;;
9420;SDS011;4749;51.398;5.466;2023-07-13T03:55:36;5.70;;;2.63;;
9420;SDS011;4749;51.398;5.466;2023-07-13T04:00:50;9.20;;;3.22;;
9420;SDS011;4749;51.398;5.466;2023-07-13T04:03:17;6.97;;;2.00;;
9420;SDS011;4749;51.398;5.466;2023-07-13T04:05:44;8.75;;;2.45;;
9420;SDS011;4749;51.398;5.466;2023-07-13T04:08:11;7.28;;;2.70;;
9420;SDS011;4749;51.398;5.466;2023-07-13T04:10:39;12.73;;;3.15;;
9420;SDS011;4749;51.398;5.466;2023-07-13T04:13:06;12.98;;;3.10;;
9420;SDS011;4749;51.398;5.466;2023-07-13T04:15:33;8.95;;;3.00;;
9420;SDS011;4749;51.398;5.466;2023-07-13T04:18:00;8.75;;;2.50;;
9420;SDS011;4749;51.398;5.466;2023-07-13T04:20:29;11.27;;;2.85;;
9420;SDS011;4749;51.398;5.466;2023-07-13T04:22:56;8.40;;;2.70;;
9420;SDS011;4749;51.398;5.466;2023-07-13T04:25:24;10.55;;;3.10;;
9420;SDS011;4749;51.398;5.466;2023-07-13T04:27:51;12.88;;;4.43;;
9420;SDS011;4749;51.398;5.466;2023-07-13T04:30:19;16.05;;;3.90;;
9420;SDS011;4749;51.398;5.466;2023-07-13T04:32:46;9.38;;;3.38;;
9420;SDS011;4749;51.398;5.466;2023-07-13T04:35:13;13.07;;;3.42;;
9420;SDS011;4749;51.398;5.466;2023-07-13T04:37:41;15.13;;;3.70;;
9420;SDS011;4749;51.398;5.466;2023-07-13T04:40:08;8.48;;;3.20;;
9420;SDS011;4749;51.398;5.466;2023-07-13T04:42:38;13.32;;;3.60;;
9420;SDS011;4749;51.398;5.466;2023-07-13T04:45:06;13.77;;;3.47;;
9420;SDS011;4749;51.398;5.466;2023-07-13T04:47:33;11.60;;;3.70;;
9420;SDS011;4749;51.398;5.466;2023-07-13T04:50:03;10.63;;;3.60;;
9420;SDS011;4749;51.398;5.466;2023-07-13T04:52:32;8.95;;;4.13;;
9420;SDS011;4749;51.398;5.466;2023-07-13T04:54:59;14.70;;;4.07;;
9420;SDS011;4749;51.398;5.466;2023-07-13T04:57:27;12.25;;;3.78;;
9420;SDS011;4749;51.398;5.466;2023-07-13T04:59:55;14.38;;;4.95;;
9420;SDS011;4749;51.398;5.466;2023-07-13T05:02:22;14.25;;;4.10;;
9420;SDS011;4749;51.398;5.466;2023-07-13T05:04:49;10.75;;;4.20;;
9420;SDS011;4749;51.398;5.466;2023-07-13T05:07:16;14.65;;;4.57;;
9420;SDS011;4749;51.398;5.466;2023-07-13T05:09:44;16.88;;;5.05;;
9420;SDS011;4749;51.398;5.466;2023-07-13T05:12:11;11.98;;;4.93;;
9420;SDS011;4749;51.398;5.466;2023-07-13T05:14:38;11.55;;;4.90;;
9420;SDS011;4749;51.398;5.466;2023-07-13T05:17:05;14.23;;;5.13;;
9420;SDS011;4749;51.398;5.466;2023-07-13T05:19:32;15.23;;;4.93;;
9420;SDS011;4749;51.398;5.466;2023-07-13T05:21:59;14.13;;;5.38;;
9420;SDS011;4749;51.398;5.466;2023-07-13T05:24:26;12.98;;;5.32;;
9420;SDS011;4749;51.398;5.466;2023-07-13T05:26:54;16.38;;;4.68;;
9420;SDS011;4749;51.398;5.466;2023-07-13T05:29:21;12.93;;;4.68;;
9420;SDS011;4749;51.398;5.466;2023-07-13T05:31:49;15.85;;;4.38;;
9420;SDS011;4749;51.398;5.466;2023-07-13T05:34:16;16.23;;;5.47;;
9420;SDS011;4749;51.398;5.466;2023-07-13T05:36:43;14.73;;;4.13;;
9420;SDS011;4749;51.398;5.466;2023-07-13T05:39:11;10.57;;;4.15;;
9420;SDS011;4749;51.398;5.466;2023-07-13T05:41:38;11.68;;;4.75;;
9420;SDS011;4749;51.398;5.466;2023-07-13T05:44:05;11.55;;;3.90;;
9420;SDS011;4749;51.398;5.466;2023-07-13T05:46:32;15.63;;;3.92;;
9420;SDS011;4749;51.398;5.466;2023-07-13T05:49:00;10.20;;;3.75;;
9420;SDS011;4749;51.398;5.466;2023-07-13T05:51:27;10.10;;;3.85;;
9420;SDS011;4749;51.398;5.466;2023-07-13T05:53:55;13.00;;;4.05;;
9420;SDS011;4749;51.398;5.466;2023-07-13T05:56:22;10.55;;;3.15;;
9420;SDS011;4749;51.398;5.466;2023-07-13T05:58:49;15.27;;;3.92;;
9420;SDS011;4749;51.398;5.466;2023-07-13T06:01:16;10.30;;;3.42;;
9420;SDS011;4749;51.398;5.466;2023-07-13T06:03:45;11.68;;;3.90;;
9420;SDS011;4749;51.398;5.466;2023-07-13T06:06:13;12.60;;;4.18;;
9420;SDS011;4749;51.398;5.466;2023-07-13T06:08:43;15.73;;;3.78;;
9420;SDS011;4749;51.398;5.466;2023-07-13T06:13:42;11.35;;;4.07;;
9420;SDS011;4749;51.398;5.466;2023-07-13T06:16:10;17.92;;;5.10;;
9420;SDS011;4749;51.398;5.466;2023-07-13T06:18:38;19.02;;;6.07;;
9420;SDS011;4749;51.398;5.466;2023-07-13T06:21:14;15.02;;;5.30;;
9420;SDS011;4749;51.398;5.466;2023-07-13T06:23:44;15.63;;;5.47;;
9420;SDS011;4749;51.398;5.466;2023-07-13T06:26:16;17.92;;;5.57;;
9420;SDS011;4749;51.398;5.466;2023-07-13T06:28:45;13.40;;;4.93;;
9420;SDS011;4749;51.398;5.466;2023-07-13T06:31:14;13.63;;;4.80;;
9420;SDS011;4749;51.398;5.466;2023-07-13T06:33:42;19.17;;;6.07;;
9420;SDS011;4749;51.398;5.466;2023-07-13T06:36:10;16.13;;;5.35;;
9420;SDS011;4749;51.398;5.466;2023-07-13T06:38:38;19.17;;;5.90;;
9420;SDS011;4749;51.398;5.466;2023-07-13T06:41:05;16.38;;;5.20;;
9420;SDS011;4749;51.398;5.466;2023-07-13T06:43:34;12.32;;;5.22;;
9420;SDS011;4749;51.398;5.466;2023-07-13T06:46:01;13.13;;;5.07;;
9420;SDS011;4749;51.398;5.466;2023-07-13T06:48:29;11.98;;;4.90;;
9420;SDS011;4749;51.398;5.466;2023-07-13T06:50:56;14.73;;;5.53;;
9420;SDS011;4749;51.398;5.466;2023-07-13T06:53:24;15.38;;;4.45;;
9420;SDS011;4749;51.398;5.466;2023-07-13T06:55:52;11.50;;;4.95;;
9420;SDS011;4749;51.398;5.466;2023-07-13T06:58:19;15.25;;;4.68;;
9420;SDS011;4749;51.398;5.466;2023-07-13T07:00:49;13.80;;;5.43;;
9420;SDS011;4749;51.398;5.466;2023-07-13T07:03:18;14.00;;;4.90;;
9420;SDS011;4749;51.398;5.466;2023-07-13T07:05:46;14.68;;;5.18;;
9420;SDS011;4749;51.398;5.466;2023-07-13T07:08:13;15.07;;;5.22;;
9420;SDS011;4749;51.398;5.466;2023-07-13T07:10:41;12.27;;;5.53;;
9420;SDS011;4749;51.398;5.466;2023-07-13T07:13:08;12.30;;;4.72;;
9420;SDS011;4749;51.398;5.466;2023-07-13T07:15:36;11.85;;;4.57;;
9420;SDS011;4749;51.398;5.466;2023-07-13T07:18:03;12.93;;;4.78;;
9420;SDS011;4749;51.398;5.466;2023-07-13T07:20:30;12.73;;;5.05;;
9420;SDS011;4749;51.398;5.466;2023-07-13T07:22:59;12.57;;;4.38;;
9420;SDS011;4749;51.398;5.466;2023-07-13T07:25:26;12.80;;;3.95;;
9420;SDS011;4749;51.398;5.466;2023-07-13T07:27:58;9.80;;;4.25;;
9420;SDS011;4749;51.398;5.466;2023-07-13T07:30:28;12.57;;;4.07;;
9420;SDS011;4749;51.398;5.466;2023-07-13T07:32:58;12.90;;;3.97;;
9420;SDS011;4749;51.398;5.466;2023-07-13T07:35:30;14.73;;;4.70;;
9420;SDS011;4749;51.398;5.466;2023-07-13T07:38:03;14.95;;;4.32;;
9420;SDS011;4749;51.398;5.466;2023-07-13T07:40:30;9.70;;;4.30;;
9420;SDS011;4749;51.398;5.466;2023-07-13T07:43:00;14.60;;;4.57;;
9420;SDS011;4749;51.398;5.466;2023-07-13T07:45:27;10.48;;;4.13;;
9420;SDS011;4749;51.398;5.466;2023-07-13T07:47:54;10.73;;;3.92;;
9420;SDS011;4749;51.398;5.466;2023-07-13T07:50:28;8.43;;;3.53;;
9420;SDS011;4749;51.398;5.466;2023-07-13T07:52:55;10.90;;;3.60;;
9420;SDS011;4749;51.398;5.466;2023-07-13T07:55:22;12.07;;;4.13;;
9420;SDS011;4749;51.398;5.466;2023-07-13T07:57:56;10.18;;;3.97;;
9420;SDS011;4749;51.398;5.466;2023-07-13T08:00:26;12.23;;;3.80;;
9420;SDS011;4749;51.398;5.466;2023-07-13T08:03:10;9.02;;;3.50;;
9420;SDS011;4749;51.398;5.466;2023-07-13T08:05:40;8.63;;;2.67;;
9420;SDS011;4749;51.398;5.466;2023-07-13T08:08:27;9.52;;;3.00;;
9420;SDS011;4749;51.398;5.466;2023-07-13T08:10:55;11.30;;;3.20;;
9420;SDS011;4749;51.398;5.466;2023-07-13T08:13:43;7.75;;;2.78;;
9420;SDS011;4749;51.398;5.466;2023-07-13T08:16:10;10.80;;;2.88;;
9420;SDS011;4749;51.398;5.466;2023-07-13T08:18:38;14.10;;;3.13;;
9420;SDS011;4749;51.398;5.466;2023-07-13T08:21:05;10.63;;;3.28;;
9420;SDS011;4749;51.398;5.466;2023-07-13T08:23:34;8.25;;;3.42;;
9420;SDS011;4749;51.398;5.466;2023-07-13T08:26:02;10.38;;;3.28;;
9420;SDS011;4749;51.398;5.466;2023-07-13T08:28:31;7.60;;;2.75;;
9420;SDS011;4749;51.398;5.466;2023-07-13T08:31:00;7.40;;;2.75;;
9420;SDS011;4749;51.398;5.466;2023-07-13T08:33:34;11.40;;;3.17;;
9420;SDS011;4749;51.398;5.466;2023-07-13T08:36:02;9.82;;;2.70;;
9420;SDS011;4749;51.398;5.466;2023-07-13T08:38:31;7.53;;;2.88;;
9420;SDS011;4749;51.398;5.466;2023-07-13T08:40:59;8.07;;;2.85;;
9420;SDS011;4749;51.398;5.466;2023-07-13T08:43:36;11.38;;;3.00;;
9420;SDS011;4749;51.398;5.466;2023-07-13T08:49:00;8.40;;;2.60;;
9420;SDS011;4749;51.398;5.466;2023-07-13T08:54:23;9.23;;;3.22;;
9420;SDS011;4749;51.398;5.466;2023-07-13T08:56:57;9.35;;;2.63;;
9420;SDS011;4749;51.398;5.466;2023-07-13T08:59:29;9.07;;;2.55;;
9420;SDS011;4749;51.398;5.466;2023-07-13T09:02:04;6.15;;;2.10;;
9420;SDS011;4749;51.398;5.466;2023-07-13T09:05:05;8.88;;;3.00;;
9420;SDS011;4749;51.398;5.466;2023-07-13T09:10:52;15.77;;;2.58;;
9420;SDS011;4749;51.398;5.466;2023-07-13T09:16:24;7.57;;;2.40;;
9420;SDS011;4749;51.398;5.466;2023-07-13T09:18:52;10.10;;;2.72;;
9420;SDS011;4749;51.398;5.466;2023-07-13T09:21:30;7.25;;;2.50;;
9420;SDS011;4749;51.398;5.466;2023-07-13T09:26:56;12.60;;;2.92;;
9420;SDS011;4749;51.398;5.466;2023-07-13T09:29:32;11.00;;;2.83;;
9420;SDS011;4749;51.398;5.466;2023-07-13T09:32:04;11.75;;;2.75;;
9420;SDS011;4749;51.398;5.466;2023-07-13T09:34:36;8.30;;;2.28;;
9420;SDS011;4749;51.398;5.466;2023-07-13T09:37:03;11.05;;;2.00;;
9420;SDS011;4749;51.398;5.466;2023-07-13T09:39:39;10.65;;;2.45;;
9420;SDS011;4749;51.398;5.466;2023-07-13T09:42:12;12.48;;;3.40;;
9420;SDS011;4749;51.398;5.466;2023-07-13T09:44:55;7.38;;;2.15;;
9420;SDS011;4749;51.398;5.466;2023-07-13T09:47:37;8.52;;;2.60;;
9420;SDS011;4749;51.398;5.466;2023-07-13T09:50:08;12.73;;;3.08;;
9420;SDS011;4749;51.398;5.466;2023-07-13T09:52:45;8.52;;;2.28;;
9420;SDS011;4749;51.398;5.466;2023-07-13T10:00:59;7.72;;;2.40;;
9420;SDS011;4749;51.398;5.466;2023-07-13T10:03:35;7.13;;;1.85;;
9420;SDS011;4749;51.398;5.466;2023-07-13T10:08:49;7.53;;;2.13;;
9420;SDS011;4749;51.398;5.466;2023-07-13T10:11:19;12.02;;;3.08;;
9420;SDS011;4749;51.398;5.466;2023-07-13T10:13:53;5.90;;;1.83;;
9420;SDS011;4749;51.398;5.466;2023-07-13T10:16:24;6.78;;;2.17;;
9420;SDS011;4749;51.398;5.466;2023-07-13T10:19:00;8.35;;;2.20;;
9420;SDS011;4749;51.398;5.466;2023-07-13T10:21:50;6.28;;;1.73;;
9420;SDS011;4749;51.398;5.466;2023-07-13T10:24:32;7.82;;;2.38;;
9420;SDS011;4749;51.398;5.466;2023-07-13T10:27:20;5.70;;;2.00;;
9420;SDS011;4749;51.398;5.466;2023-07-13T10:29:59;8.48;;;1.80;;
9420;SDS011;4749;51.398;5.466;2023-07-13T10:32:49;5.90;;;1.50;;
9420;SDS011;4749;51.398;5.466;2023-07-13T10:35:17;6.00;;;1.20;;
9420;SDS011;4749;51.398;5.466;2023-07-13T10:40:39;7.10;;;1.63;;
9420;SDS011;4749;51.398;5.466;2023-07-13T10:43:22;4.65;;;1.80;;
9420;SDS011;4749;51.398;5.466;2023-07-13T10:45:55;6.53;;;1.70;;
9420;SDS011;4749;51.398;5.466;2023-07-13T10:48:23;3.53;;;1.30;;
9420;SDS011;4749;51.398;5.466;2023-07-13T10:50:51;4.45;;;1.70;;
9420;SDS011;4749;51.398;5.466;2023-07-13T10:53:21;6.90;;;1.60;;
9420;SDS011;4749;51.398;5.466;2023-07-13T10:59:17;5.30;;;1.80;;
9420;SDS011;4749;51.398;5.466;2023-07-13T11:04:40;5.88;;;1.80;;
9420;SDS011;4749;51.398;5.466;2023-07-13T11:07:18;5.60;;;1.70;;
9420;SDS011;4749;51.398;5.466;2023-07-13T11:09:50;6.22;;;1.67;;
9420;SDS011;4749;51.398;5.466;2023-07-13T11:20:23;4.75;;;1.60;;
9420;SDS011;4749;51.398;5.466;2023-07-13T11:25:38;4.57;;;1.55;;
9420;SDS011;4749;51.398;5.466;2023-07-13T11:30:38;4.15;;;1.80;;
9420;SDS011;4749;51.398;5.466;2023-07-13T11:36:05;5.75;;;1.40;;
9420;SDS011;4749;51.398;5.466;2023-07-13T11:38:40;5.55;;;1.80;;
9420;SDS011;4749;51.398;5.466;2023-07-13T11:41:23;5.93;;;1.83;;
9420;SDS011;4749;51.398;5.466;2023-07-13T11:44:05;7.05;;;1.75;;
9420;SDS011;4749;51.398;5.466;2023-07-13T11:46:45;6.20;;;1.77;;
9420;SDS011;4749;51.398;5.466;2023-07-13T11:49:29;4.40;;;1.48;;
9420;SDS011;4749;51.398;5.466;2023-07-13T11:51:59;2.80;;;1.30;;
9420;SDS011;4749;51.398;5.466;2023-07-13T11:54:30;5.63;;;1.40;;
9420;SDS011;4749;51.398;5.466;2023-07-13T11:59:57;4.18;;;1.70;;
9420;SDS011;4749;51.398;5.466;2023-07-13T12:02:48;4.03;;;1.20;;
9420;SDS011;4749;51.398;5.466;2023-07-13T12:05:20;4.60;;;1.20;;
9420;SDS011;4749;51.398;5.466;2023-07-13T12:07:48;2.90;;;1.15;;
9420;SDS011;4749;51.398;5.466;2023-07-13T12:13:01;5.55;;;1.67;;
9420;SDS011;4749;51.398;5.466;2023-07-13T12:18:18;5.22;;;1.60;;
9420;SDS011;4749;51.398;5.466;2023-07-13T12:20:48;2.72;;;1.20;;
9420;SDS011;4749;51.398;5.466;2023-07-13T12:26:05;2.40;;;1.23;;
9420;SDS011;4749;51.398;5.466;2023-07-13T12:28:37;2.88;;;1.30;;
9420;SDS011;4749;51.398;5.466;2023-07-13T12:34:08;5.30;;;1.40;;
9420;SDS011;4749;51.398;5.466;2023-07-13T12:36:47;5.13;;;1.35;;
9420;SDS011;4749;51.398;5.466;2023-07-13T12:39:22;4.47;;;1.35;;
9420;SDS011;4749;51.398;5.466;2023-07-13T12:44:52;5.05;;;1.40;;
9420;SDS011;4749;51.398;5.466;2023-07-13T12:47:25;4.25;;;1.40;;
9420;SDS011;4749;51.398;5.466;2023-07-13T12:49:54;5.15;;;1.52;;
9420;SDS011;4749;51.398;5.466;2023-07-13T12:52:28;6.18;;;1.40;;
9420;SDS011;4749;51.398;5.466;2023-07-13T12:55:07;4.90;;;1.40;;
9420;SDS011;4749;51.398;5.466;2023-07-13T13:00:23;5.10;;;1.90;;
9420;SDS011;4749;51.398;5.466;2023-07-13T13:03:02;4.22;;;1.88;;
9420;SDS011;4749;51.398;5.466;2023-07-13T13:06:00;5.07;;;1.95;;
9420;SDS011;4749;51.398;5.466;2023-07-13T13:08:33;4.75;;;1.83;;
9420;SDS011;4749;51.398;5.466;2023-07-13T13:11:03;5.95;;;2.10;;
9420;SDS011;4749;51.398;5.466;2023-07-13T13:13:30;6.45;;;2.35;;
9420;SDS011;4749;51.398;5.466;2023-07-13T13:16:02;8.05;;;2.50;;
9420;SDS011;4749;51.398;5.466;2023-07-13T13:18:45;6.57;;;2.45;;
9420;SDS011;4749;51.398;5.466;2023-07-13T13:21:12;6.32;;;2.58;;
9420;SDS011;4749;51.398;5.466;2023-07-13T13:23:39;6.65;;;2.42;;
9420;SDS011;4749;51.398;5.466;2023-07-13T13:26:13;5.47;;;2.15;;
9420;SDS011;4749;51.398;5.466;2023-07-13T13:28:42;4.10;;;2.17;;
9420;SDS011;4749;51.398;5.466;2023-07-13T13:31:11;6.10;;;2.88;;
9420;SDS011;4749;51.398;5.466;2023-07-13T13:33:39;7.65;;;3.13;;
9420;SDS011;4749;51.398;5.466;2023-07-13T13:36:19;5.30;;;2.50;;
9420;SDS011;4749;51.398;5.466;2023-07-13T13:38:49;5.43;;;2.40;;
9420;SDS011;4749;51.398;5.466;2023-07-13T13:41:17;5.88;;;2.75;;
9420;SDS011;4749;51.398;5.466;2023-07-13T13:43:44;4.63;;;2.40;;
9420;SDS011;4749;51.398;5.466;2023-07-13T13:46:15;5.78;;;2.42;;
9420;SDS011;4749;51.398;5.466;2023-07-13T13:48:48;5.13;;;2.38;;
9420;SDS011;4749;51.398;5.466;2023-07-13T13:51:16;6.22;;;2.17;;
9420;SDS011;4749;51.398;5.466;2023-07-13T13:53:46;4.00;;;2.30;;
9420;SDS011;4749;51.398;5.466;2023-07-13T13:56:14;4.38;;;2.30;;
9420;SDS011;4749;51.398;5.466;2023-07-13T13:58:44;4.75;;;2.30;;
9420;SDS011;4749;51.398;5.466;2023-07-13T14:01:13;4.35;;;1.92;;
9420;SDS011;4749;51.398;5.466;2023-07-13T14:03:51;4.28;;;2.20;;
9420;SDS011;4749;51.398;5.466;2023-07-13T14:06:18;4.93;;;1.98;;
9420;SDS011;4749;51.398;5.466;2023-07-13T14:08:46;3.00;;;1.55;;
9420;SDS011;4749;51.398;5.466;2023-07-13T14:11:17;4.88;;;2.17;;
9420;SDS011;4749;51.398;5.466;2023-07-13T14:13:48;6.47;;;1.88;;
9420;SDS011;4749;51.398;5.466;2023-07-13T14:16:29;4.57;;;1.80;;
9420;SDS011;4749;51.398;5.466;2023-07-13T14:18:59;4.72;;;1.85;;
9420;SDS011;4749;51.398;5.466;2023-07-13T14:21:27;3.83;;;1.80;;
9420;SDS011;4749;51.398;5.466;2023-07-13T14:23:55;3.35;;;1.40;;
9420;SDS011;4749;51.398;5.466;2023-07-13T14:26:26;3.97;;;1.50;;
9420;SDS011;4749;51.398;5.466;2023-07-13T14:28:54;2.10;;;1.48;;
9420;SDS011;4749;51.398;5.466;2023-07-13T14:31:26;3.63;;;1.40;;
9420;SDS011;4749;51.398;5.466;2023-07-13T14:33:57;3.63;;;1.42;;
9420;SDS011;4749;51.398;5.466;2023-07-13T14:36:31;2.55;;;1.48;;
9420;SDS011;4749;51.398;5.466;2023-07-13T14:39:22;2.70;;;1.60;;
9420;SDS011;4749;51.398;5.466;2023-07-13T14:41:51;4.00;;;1.60;;
9420;SDS011;4749;51.398;5.466;2023-07-13T14:44:25;4.30;;;1.42;;
9420;SDS011;4749;51.398;5.466;2023-07-13T14:46:56;2.95;;;1.40;;
9420;SDS011;4749;51.398;5.466;2023-07-13T14:49:28;3.38;;;1.50;;
9420;SDS011;4749;51.398;5.466;2023-07-13T14:52:13;4.07;;;1.40;;
9420;SDS011;4749;51.398;5.466;2023-07-13T14:54:44;1.77;;;1.00;;
9420;SDS011;4749;51.398;5.466;2023-07-13T14:57:21;4.20;;;1.50;;
9420;SDS011;4749;51.398;5.466;2023-07-13T14:59:48;4.13;;;1.38;;
9420;SDS011;4749;51.398;5.466;2023-07-13T15:02:27;3.08;;;1.40;;
9420;SDS011;4749;51.398;5.466;2023-07-13T15:05:00;3.60;;;1.27;;
9420;SDS011;4749;51.398;5.466;2023-07-13T15:07:28;3.08;;;1.38;;
9420;SDS011;4749;51.398;5.466;2023-07-13T15:09:55;1.92;;;1.23;;
9420;SDS011;4749;51.398;5.466;2023-07-13T15:12:22;2.38;;;1.25;;
9420;SDS011;4749;51.398;5.466;2023-07-13T15:14:49;1.63;;;1.15;;
9420;SDS011;4749;51.398;5.466;2023-07-13T15:17:36;2.75;;;1.30;;
9420;SDS011;4749;51.398;5.466;2023-07-13T15:20:11;3.45;;;1.50;;
9420;SDS011;4749;51.398;5.466;2023-07-13T15:22:44;4.32;;;1.60;;
9420;SDS011;4749;51.398;5.466;2023-07-13T15:25:17;1.98;;;1.02;;
9420;SDS011;4749;51.398;5.466;2023-07-13T15:27:47;4.63;;;1.58;;
9420;SDS011;4749;51.398;5.466;2023-07-13T15:30:14;3.38;;;1.40;;
9420;SDS011;4749;51.398;5.466;2023-07-13T15:32:45;3.58;;;1.55;;
9420;SDS011;4749;51.398;5.466;2023-07-13T15:35:16;2.47;;;1.42;;
9420;SDS011;4749;51.398;5.466;2023-07-13T15:37:47;5.13;;;1.63;;
9420;SDS011;4749;51.398;5.466;2023-07-13T15:40:16;4.10;;;1.65;;
9420;SDS011;4749;51.398;5.466;2023-07-13T15:42:45;4.60;;;1.42;;
9420;SDS011;4749;51.398;5.466;2023-07-13T15:45:19;4.28;;;2.00;;
9420;SDS011;4749;51.398;5.466;2023-07-13T15:47:50;3.53;;;1.73;;
9420;SDS011;4749;51.398;5.466;2023-07-13T15:50:22;5.32;;;1.75;;
9420;SDS011;4749;51.398;5.466;2023-07-13T15:52:52;4.65;;;2.03;;
9420;SDS011;4749;51.398;5.466;2023-07-13T15:55:21;7.38;;;2.30;;
9420;SDS011;4749;51.398;5.466;2023-07-13T15:57:50;3.70;;;1.92;;
9420;SDS011;4749;51.398;5.466;2023-07-13T16:00:24;3.75;;;2.10;;
9420;SDS011;4749;51.398;5.466;2023-07-13T16:02:54;3.38;;;1.70;;
9420;SDS011;4749;51.398;5.466;2023-07-13T16:05:21;6.00;;;2.13;;
9420;SDS011;4749;51.398;5.466;2023-07-13T16:07:51;4.05;;;1.60;;
9420;SDS011;4749;51.398;5.466;2023-07-13T16:10:21;4.65;;;2.10;;
9420;SDS011;4749;51.398;5.466;2023-07-13T16:12:56;4.60;;;2.17;;
9420;SDS011;4749;51.398;5.466;2023-07-13T16:15:24;3.78;;;2.38;;
9420;SDS011;4749;51.398;5.466;2023-07-13T16:17:51;4.40;;;2.30;;
9420;SDS011;4749;51.398;5.466;2023-07-13T16:20:18;6.65;;;1.92;;
9420;SDS011;4749;51.398;5.466;2023-07-13T16:22:48;6.20;;;2.33;;
9420;SDS011;4749;51.398;5.466;2023-07-13T16:25:20;4.00;;;2.30;;
9420;SDS011;4749;51.398;5.466;2023-07-13T16:27:50;2.83;;;1.70;;
9420;SDS011;4749;51.398;5.466;2023-07-13T16:30:20;5.03;;;1.70;;
9420;SDS011;4749;51.398;5.466;2023-07-13T16:32:53;3.75;;;1.80;;
9420;SDS011;4749;51.398;5.466;2023-07-13T16:35:21;4.50;;;2.03;;
9420;SDS011;4749;51.398;5.466;2023-07-13T16:37:52;2.95;;;1.83;;
9420;SDS011;4749;51.398;5.466;2023-07-13T16:40:32;4.10;;;1.80;;
9420;SDS011;4749;51.398;5.466;2023-07-13T16:43:01;3.83;;;1.83;;
9420;SDS011;4749;51.398;5.466;2023-07-13T16:45:31;3.58;;;1.80;;
9420;SDS011;4749;51.398;5.466;2023-07-13T16:48:05;6.90;;;1.70;;